createdAt,value
2022-10-10T00:02:12.836Z,41.00
2022-10-10T00:04:46.755Z,40.90
2022-10-10T00:07:22.422Z,40.60
2022-10-10T00:09:56.326Z,40.90
2022-10-10T00:12:30.221Z,40.40
2022-10-10T00:15:04.277Z,40.30
2022-10-10T00:17:38.291Z,40.50
2022-10-10T00:20:13.517Z,40.40
2022-10-10T00:22:49.759Z,40.10
2022-10-10T00:25:23.939Z,39.80
2022-10-10T00:27:57.892Z,39.80
2022-10-10T00:30:32.377Z,39.60
2022-10-10T00:33:06.337Z,39.50
2022-10-10T00:35:40.327Z,39.50
2022-10-10T00:38:15.676Z,39.40
2022-10-10T00:40:51.254Z,39.40
2022-10-10T00:43:26.696Z,39.20
2022-10-10T00:46:00.911Z,39.80
2022-10-10T00:48:38.232Z,39.80
2022-10-10T00:51:15.145Z,40.30
2022-10-10T00:53:52.604Z,40.70
2022-10-10T00:56:29.948Z,40.90
2022-10-10T00:59:07.268Z,40.90
2022-10-10T01:01:42.503Z,41.10
2022-10-10T01:04:34.472Z,41.20
2022-10-10T01:07:11.030Z,41.80
2022-10-10T01:09:48.563Z,41.70
2022-10-10T01:12:28.593Z,41.90
2022-10-10T01:15:10.973Z,42.00
2022-10-10T01:17:50.867Z,42.10
2022-10-10T01:20:54.592Z,42.30
2022-10-10T01:23:58.818Z,42.40
2022-10-10T01:27:07.567Z,42.60
2022-10-10T01:29:46.904Z,42.60
2022-10-10T01:32:27.927Z,42.60
2022-10-10T01:35:41.179Z,42.60
2022-10-10T01:38:28.668Z,42.80
2022-10-10T01:41:07.333Z,42.80
2022-10-10T01:43:41.711Z,42.70
2022-10-10T01:46:20.053Z,42.70
2022-10-10T01:48:57.316Z,42.90
2022-10-10T01:51:50.195Z,42.80
2022-10-10T01:54:37.323Z,42.90
2022-10-10T01:57:25.535Z,43.00
2022-10-10T02:00:06.842Z,43.00
2022-10-10T02:02:50.953Z,43.00
2022-10-10T02:05:31.145Z,43.00
2022-10-10T02:08:09.589Z,43.00
2022-10-10T02:10:47.844Z,43.10
2022-10-10T02:13:24.710Z,43.10
2022-10-10T02:16:01.632Z,43.10
2022-10-10T02:18:37.916Z,43.20
2022-10-10T02:21:12.991Z,43.20
2022-10-10T02:23:49.853Z,43.20
2022-10-10T02:26:26.344Z,43.20
2022-10-10T02:29:06.539Z,43.20
2022-10-10T02:31:44.544Z,43.20
2022-10-10T02:34:22.761Z,43.20
2022-10-10T02:36:59.900Z,43.20
2022-10-10T02:39:37.583Z,43.20
2022-10-10T02:42:13.577Z,43.20
2022-10-10T02:44:48.510Z,43.20
2022-10-10T02:47:22.651Z,43.30
2022-10-10T02:49:58.169Z,43.30
2022-10-10T02:52:32.306Z,43.30
2022-10-10T02:55:07.149Z,43.30
2022-10-10T02:57:41.119Z,43.30
2022-10-10T03:00:16.063Z,43.30
2022-10-10T03:02:50.326Z,43.30
2022-10-10T03:05:25.898Z,43.40
2022-10-10T03:08:00.004Z,43.40
2022-10-10T03:10:34.120Z,43.40
2022-10-10T03:13:08.421Z,43.40
2022-10-10T03:15:42.338Z,43.40
2022-10-10T03:18:16.396Z,43.40
2022-10-10T03:20:55.053Z,43.40
2022-10-10T03:23:28.996Z,43.40
2022-10-10T03:26:03.325Z,43.40
2022-10-10T03:28:38.653Z,43.40
2022-10-10T03:31:12.647Z,43.40
2022-10-10T03:33:46.668Z,43.50
2022-10-10T03:36:22.509Z,43.50
2022-10-10T03:38:56.541Z,43.50
2022-10-10T03:41:30.685Z,43.60
2022-10-10T03:44:04.682Z,43.60
2022-10-10T03:46:38.821Z,43.60
2022-10-10T03:49:12.863Z,43.60
2022-10-10T03:51:48.238Z,43.60
2022-10-10T03:54:22.286Z,43.60
2022-10-10T03:56:56.222Z,43.70
2022-10-10T03:59:30.240Z,43.70
2022-10-10T04:02:04.172Z,43.70
2022-10-10T04:04:38.326Z,43.80
2022-10-10T04:07:13.780Z,43.70
2022-10-10T04:09:47.893Z,43.80
2022-10-10T04:12:22.070Z,43.80
2022-10-10T04:14:56.388Z,43.80
2022-10-10T04:17:30.388Z,43.80
2022-10-10T04:20:04.529Z,43.80
2022-10-10T04:22:39.955Z,43.80
2022-10-10T04:25:14.190Z,44.00
2022-10-10T04:27:48.099Z,44.00
2022-10-10T04:30:22.058Z,44.00
2022-10-10T04:32:55.908Z,44.00
2022-10-10T04:35:29.873Z,44.00
2022-10-10T04:38:05.170Z,44.00
2022-10-10T04:40:39.164Z,44.10
2022-10-10T04:43:13.009Z,44.10
2022-10-10T04:45:46.962Z,44.10
2022-10-10T04:48:21.078Z,44.10
2022-10-10T04:50:55.758Z,44.10
2022-10-10T04:53:31.187Z,44.10
2022-10-10T04:56:05.580Z,44.10
2022-10-10T04:58:39.529Z,44.10
2022-10-10T05:01:13.474Z,44.10
2022-10-10T05:03:47.493Z,44.30
2022-10-10T05:06:21.533Z,44.30
2022-10-10T05:08:56.879Z,44.20
2022-10-10T05:11:30.847Z,44.20
2022-10-10T05:14:05.006Z,44.20
2022-10-10T05:16:39.020Z,44.30
2022-10-10T05:19:13.095Z,44.20
2022-10-10T05:21:47.117Z,44.10
2022-10-10T05:24:22.556Z,44.00
2022-10-10T05:26:56.489Z,43.80
2022-10-10T05:29:30.533Z,43.80
2022-10-10T05:32:09.200Z,43.40
2022-10-10T05:34:44.258Z,43.40
2022-10-10T05:37:18.356Z,43.20
2022-10-10T05:39:54.810Z,43.20
2022-10-10T05:42:29.004Z,43.20
2022-10-10T05:45:03.035Z,43.80
2022-10-10T05:47:37.182Z,43.20
2022-10-10T05:50:24.597Z,43.30
2022-10-10T05:52:58.788Z,43.30
2022-10-10T05:55:35.487Z,43.30
2022-10-10T05:58:09.576Z,43.40
2022-10-10T06:00:44.375Z,43.50
2022-10-10T06:03:19.327Z,43.60
2022-10-10T06:05:53.781Z,43.60
2022-10-10T06:08:27.839Z,43.80
2022-10-10T06:11:09.196Z,43.80
2022-10-10T06:13:43.125Z,43.90
2022-10-10T06:16:17.020Z,43.90
2022-10-10T06:18:51.287Z,44.10
2022-10-10T06:21:26.032Z,43.20
2022-10-10T06:24:00.079Z,42.90
2022-10-10T06:26:35.538Z,42.60
2022-10-10T06:29:09.679Z,42.30
2022-10-10T06:31:43.561Z,42.00
2022-10-10T06:34:17.465Z,41.80
2022-10-10T06:36:52.177Z,41.20
2022-10-10T06:39:26.138Z,41.10
2022-10-10T06:42:01.455Z,35.80
2022-10-10T06:44:35.470Z,33.00
2022-10-10T06:47:11.571Z,32.20
2022-10-10T06:49:45.462Z,32.00
2022-10-10T06:52:20.831Z,32.20
2022-10-10T06:54:54.702Z,33.80
2022-10-10T06:57:30.323Z,34.10
2022-10-10T07:00:05.240Z,34.30
2022-10-10T07:02:41.050Z,35.00
2022-10-10T07:05:17.340Z,35.30
2022-10-10T07:07:54.433Z,36.00
2022-10-10T07:10:28.835Z,36.10
2022-10-10T07:13:04.175Z,36.10
2022-10-10T07:15:38.145Z,36.30
2022-10-10T07:18:12.704Z,36.40
2022-10-10T07:20:46.768Z,36.50
2022-10-10T07:23:20.635Z,36.50
2022-10-10T07:26:00.162Z,36.70
2022-10-10T07:28:35.850Z,37.10
2022-10-10T07:31:11.510Z,37.30
2022-10-10T07:33:50.247Z,37.50
2022-10-10T07:36:24.820Z,37.50
2022-10-10T07:38:58.771Z,37.50
2022-10-10T07:41:32.689Z,37.40
2022-10-10T07:44:08.031Z,37.40
2022-10-10T07:46:41.953Z,37.70
2022-10-10T07:49:16.016Z,37.70
2022-10-10T07:51:49.957Z,37.60
2022-10-10T07:54:23.823Z,37.80
2022-10-10T07:56:58.138Z,38.10
2022-10-10T07:59:33.439Z,38.20
2022-10-10T08:02:07.599Z,38.30
2022-10-10T08:04:41.694Z,38.30
2022-10-10T08:07:15.581Z,38.40
2022-10-10T08:09:49.150Z,39.00
2022-10-10T08:12:23.061Z,38.50
2022-10-10T08:14:59.528Z,38.50
2022-10-10T08:17:33.880Z,38.50
2022-10-10T08:20:08.891Z,38.60
2022-10-10T08:22:42.922Z,38.60
2022-10-10T08:25:17.274Z,38.50
2022-10-10T08:27:51.332Z,38.50
2022-10-10T08:30:26.879Z,38.60
2022-10-10T08:33:01.654Z,38.50
2022-10-10T08:35:39.708Z,38.40
2022-10-10T08:38:14.877Z,38.60
2022-10-10T08:40:52.902Z,38.60
2022-10-10T08:43:34.216Z,39.00
2022-10-10T08:46:32.256Z,39.60
2022-10-10T08:49:18.803Z,39.80
2022-10-10T08:51:59.971Z,39.60
2022-10-10T08:54:35.865Z,39.60
2022-10-10T08:57:26.503Z,39.60
2022-10-10T09:00:06.064Z,39.60
2022-10-10T09:02:54.549Z,39.60
2022-10-10T09:05:42.835Z,39.60
2022-10-10T09:08:35.298Z,39.90
2022-10-10T09:11:21.531Z,39.90
2022-10-10T09:14:06.300Z,39.70
2022-10-10T09:16:48.549Z,39.60
2022-10-10T09:19:34.625Z,39.50
2022-10-10T09:22:13.695Z,39.20
2022-10-10T09:24:51.407Z,39.10
2022-10-10T09:27:30.404Z,39.00
2022-10-10T09:30:07.029Z,38.90
2022-10-10T09:32:46.058Z,38.90
2022-10-10T09:35:24.319Z,39.00
2022-10-10T09:38:04.368Z,38.90
2022-10-10T09:40:41.174Z,38.90
2022-10-10T09:43:19.060Z,38.90
2022-10-10T09:45:56.408Z,38.90
2022-10-10T09:48:33.479Z,38.80
2022-10-10T09:51:14.153Z,38.60
2022-10-10T09:53:50.092Z,38.60
2022-10-10T09:56:28.733Z,38.50
2022-10-10T09:59:02.627Z,38.30
2022-10-10T10:01:36.659Z,39.00
2022-10-10T10:04:33.203Z,38.30
2022-10-10T10:07:21.110Z,38.40
2022-10-10T10:09:57.640Z,38.20
2022-10-10T10:12:41.311Z,38.20
2022-10-10T10:15:20.696Z,38.30
2022-10-10T10:18:13.256Z,38.30
2022-10-10T10:20:49.212Z,38.30
2022-10-10T10:23:34.304Z,38.20
2022-10-10T10:26:17.946Z,38.10
2022-10-10T10:28:53.467Z,38.30
2022-10-10T10:31:53.634Z,38.30
2022-10-10T10:34:47.275Z,39.30
2022-10-10T10:37:24.949Z,39.10
2022-10-10T10:40:19.187Z,38.90
2022-10-10T10:43:08.191Z,38.60
2022-10-10T10:45:54.863Z,38.60
2022-10-10T10:48:30.988Z,38.50
2022-10-10T10:51:16.706Z,37.70
2022-10-10T10:54:01.761Z,37.80
2022-10-10T10:56:42.874Z,38.20
2022-10-10T11:00:22.275Z,37.90
2022-10-10T11:02:57.623Z,38.10
2022-10-10T11:05:41.643Z,38.50
2022-10-10T11:08:44.779Z,38.40
2022-10-10T11:11:31.763Z,38.20
2022-10-10T11:14:17.637Z,38.20
2022-10-10T11:16:55.999Z,38.20
2022-10-10T11:19:33.987Z,37.80
2022-10-10T11:22:11.026Z,37.80
2022-10-10T11:24:49.456Z,38.00
2022-10-10T11:27:28.184Z,37.80
2022-10-10T11:30:14.689Z,37.70
2022-10-10T11:32:53.595Z,37.80
2022-10-10T11:35:37.888Z,37.80
2022-10-10T11:38:22.248Z,38.30
2022-10-10T11:40:59.615Z,37.80
2022-10-10T11:43:41.381Z,37.90
2022-10-10T11:46:27.238Z,37.40
2022-10-10T11:49:10.161Z,38.10
2022-10-10T11:52:21.447Z,37.70
2022-10-10T11:55:03.141Z,37.50
2022-10-10T11:57:42.640Z,37.80
2022-10-10T12:00:18.801Z,37.70
2022-10-10T12:02:57.755Z,37.60
2022-10-10T12:05:38.777Z,37.80
2022-10-10T12:08:19.156Z,37.80
2022-10-10T12:10:58.333Z,38.00
2022-10-10T12:13:35.494Z,37.80
2022-10-10T12:16:12.194Z,37.60
2022-10-10T12:18:53.147Z,37.80
2022-10-10T12:21:28.206Z,37.50
2022-10-10T12:24:06.733Z,37.30
2022-10-10T12:27:26.824Z,37.30
2022-10-10T12:30:21.571Z,37.90
2022-10-10T12:32:56.081Z,34.50
2022-10-10T12:35:42.456Z,34.80
2022-10-10T12:38:22.696Z,34.30
2022-10-10T12:41:14.476Z,34.90
2022-10-10T12:44:13.642Z,36.10
2022-10-10T12:46:50.128Z,35.50
2022-10-10T12:49:26.520Z,35.50
2022-10-10T12:52:15.223Z,35.40
2022-10-10T12:54:50.713Z,35.60
2022-10-10T12:57:37.485Z,35.90
2022-10-10T13:00:18.381Z,36.30
2022-10-10T13:02:55.754Z,36.00
2022-10-10T13:05:34.322Z,36.10
2022-10-10T13:08:15.377Z,36.00
2022-10-10T13:11:06.646Z,36.30
2022-10-10T13:13:41.702Z,36.60
2022-10-10T13:16:17.466Z,36.50
2022-10-10T13:18:53.846Z,36.40
2022-10-10T13:21:31.435Z,36.50
2022-10-10T13:24:08.474Z,36.80
2022-10-10T13:26:49.511Z,37.00
2022-10-10T13:29:27.497Z,37.00
2022-10-10T13:32:05.057Z,36.80
2022-10-10T13:34:43.410Z,36.60
2022-10-10T13:37:19.552Z,36.60
2022-10-10T13:39:55.632Z,36.70
2022-10-10T13:42:35.705Z,36.60
2022-10-10T13:45:30.682Z,36.70
2022-10-10T13:48:23.206Z,37.00
2022-10-10T13:51:07.059Z,36.70
2022-10-10T13:53:51.455Z,36.90
2022-10-10T13:56:30.169Z,37.00
2022-10-10T13:59:09.882Z,37.10
2022-10-10T14:01:46.462Z,37.10
2022-10-10T14:04:25.615Z,37.10
2022-10-10T14:07:04.817Z,37.20
2022-10-10T14:09:42.375Z,37.20
2022-10-10T14:12:25.546Z,37.40
2022-10-10T14:15:00.621Z,37.60
2022-10-10T14:17:34.607Z,37.60
2022-10-10T14:20:14.245Z,37.50
2022-10-10T14:22:48.425Z,37.50
2022-10-10T14:25:22.581Z,37.30
2022-10-10T14:27:57.960Z,37.30
2022-10-10T14:30:31.900Z,37.30
2022-10-10T14:33:12.263Z,37.30
2022-10-10T14:35:47.743Z,37.20
2022-10-10T14:38:22.127Z,37.20
2022-10-10T14:40:56.722Z,37.20
2022-10-10T14:43:32.121Z,37.30
2022-10-10T14:46:06.577Z,37.30
2022-10-10T14:48:40.453Z,37.30
2022-10-10T14:51:33.504Z,37.10
2022-10-10T14:54:10.859Z,37.00
2022-10-10T14:57:07.127Z,37.10
2022-10-10T14:59:49.254Z,36.90
2022-10-10T15:02:24.220Z,36.90
2022-10-10T15:04:58.267Z,36.90
2022-10-10T15:07:32.278Z,36.80
2022-10-10T15:13:01.526Z,36.70
2022-10-10T15:15:37.017Z,36.70
2022-10-10T15:18:32.118Z,36.60
2022-10-10T15:21:10.698Z,36.60
2022-10-10T15:23:44.725Z,36.70
2022-10-10T15:26:18.790Z,36.60
2022-10-10T15:28:54.279Z,36.50
2022-10-10T15:31:32.857Z,36.60
2022-10-10T15:34:07.986Z,36.60
2022-10-10T15:36:42.588Z,36.50
2022-10-10T15:39:17.259Z,36.50
2022-10-10T15:41:51.233Z,36.70
2022-10-10T15:44:25.298Z,36.50
2022-10-10T15:47:01.075Z,36.40
2022-10-10T15:49:35.268Z,36.50
2022-10-10T15:52:10.013Z,36.30
2022-10-10T15:54:44.108Z,36.70
2022-10-10T15:57:19.106Z,37.00
2022-10-10T15:59:53.290Z,36.50
2022-10-10T16:02:28.863Z,36.30
2022-10-10T16:05:04.286Z,36.20
2022-10-10T16:07:46.709Z,36.20
2022-10-10T16:10:21.918Z,36.10
2022-10-10T16:12:56.184Z,35.80
2022-10-10T16:15:30.197Z,36.00
2022-10-10T16:18:05.955Z,36.40
2022-10-10T16:20:40.260Z,36.20
2022-10-10T16:23:14.210Z,36.50
2022-10-10T16:25:48.269Z,36.80
2022-10-10T16:28:22.276Z,36.90
2022-10-10T16:30:56.445Z,37.40
2022-10-10T16:33:33.447Z,37.70
2022-10-10T16:36:10.477Z,37.90
2022-10-10T16:38:44.988Z,37.90
2022-10-10T16:41:45.914Z,38.40
2022-10-10T16:44:14.966Z,38.60
2022-10-10T16:46:48.855Z,39.40
2022-10-10T16:49:24.514Z,40.00
2022-10-10T16:51:58.377Z,39.80
2022-10-10T16:54:32.305Z,39.50
2022-10-10T16:57:06.252Z,39.30
2022-10-10T16:59:40.574Z,39.10
2022-10-10T17:02:14.871Z,39.10
2022-10-10T17:04:50.172Z,39.00
2022-10-10T17:07:24.055Z,38.70
2022-10-10T17:09:57.953Z,38.70
2022-10-10T17:12:31.802Z,38.70
2022-10-10T17:15:05.892Z,38.80
2022-10-10T17:17:39.732Z,39.20
2022-10-10T17:20:15.197Z,38.90
2022-10-10T17:22:49.328Z,38.70
2022-10-10T17:25:23.250Z,38.70
2022-10-10T17:27:57.207Z,38.70
2022-10-10T17:30:31.369Z,38.60
2022-10-10T17:33:05.502Z,38.60
2022-10-10T17:35:43.734Z,39.40
2022-10-10T17:38:38.555Z,39.10
2022-10-10T17:41:14.252Z,39.60
2022-10-10T17:43:48.629Z,40.20
2022-10-10T17:46:40.147Z,40.20
2022-10-10T17:49:14.519Z,40.20
2022-10-10T17:51:50.079Z,40.10
2022-10-10T17:54:24.125Z,41.00
2022-10-10T17:56:58.221Z,41.00
2022-10-10T17:59:32.578Z,40.90
2022-10-10T18:02:07.184Z,40.80
2022-10-10T18:04:41.885Z,40.80
2022-10-10T18:07:18.832Z,40.80
2022-10-10T18:09:53.292Z,40.90
2022-10-10T18:12:27.307Z,41.00
2022-10-10T18:15:03.263Z,41.00
2022-10-10T18:17:37.437Z,41.00
2022-10-10T18:20:12.983Z,40.80
2022-10-10T18:22:48.307Z,40.70
2022-10-10T18:25:25.221Z,40.50
2022-10-10T18:28:00.742Z,40.30
2022-10-10T18:30:34.790Z,40.10
2022-10-10T18:33:08.917Z,40.20
2022-10-10T18:35:43.018Z,40.10
2022-10-10T18:38:18.688Z,40.70
2022-10-10T18:41:04.301Z,40.10
2022-10-10T18:43:39.859Z,40.10
2022-10-10T18:46:15.959Z,40.10
2022-10-10T18:48:53.979Z,40.00
2022-10-10T18:51:30.222Z,40.00
2022-10-10T18:54:09.087Z,40.00
2022-10-10T18:56:44.062Z,39.80
2022-10-10T18:59:21.834Z,39.80
2022-10-10T19:01:55.932Z,40.00
2022-10-10T19:04:30.043Z,40.20
2022-10-10T19:07:04.075Z,40.30
2022-10-10T19:09:40.276Z,40.30
2022-10-10T19:12:14.394Z,40.50
2022-10-10T19:14:49.687Z,40.40
2022-10-10T19:17:24.609Z,40.40
2022-10-10T19:19:58.823Z,40.50
2022-10-10T19:22:33.058Z,40.50
2022-10-10T19:25:09.679Z,40.50
2022-10-10T19:27:44.025Z,40.60
2022-10-10T19:30:18.210Z,40.70
2022-10-10T19:32:52.342Z,40.80
2022-10-10T19:35:26.862Z,40.90
2022-10-10T19:38:01.048Z,41.00
2022-10-10T19:40:36.899Z,40.90
2022-10-10T19:43:10.938Z,40.90
2022-10-10T19:45:47.164Z,40.90
2022-10-10T19:48:23.581Z,40.80
2022-10-10T19:50:57.647Z,40.80
2022-10-10T19:53:33.544Z,40.90
2022-10-10T19:56:11.599Z,40.80
2022-10-10T19:58:45.589Z,41.40
2022-10-10T20:01:20.481Z,40.70
2022-10-10T20:03:55.350Z,40.60
2022-10-10T20:06:29.507Z,40.70
2022-10-10T20:09:08.379Z,41.00
2022-10-10T20:11:46.098Z,40.90
2022-10-10T20:14:20.309Z,40.90
2022-10-10T20:16:55.210Z,40.90
2022-10-10T20:19:29.338Z,40.80
2022-10-10T20:22:03.293Z,40.80
2022-10-10T20:24:37.518Z,40.80
2022-10-10T20:27:13.359Z,40.80
2022-10-10T20:29:47.473Z,40.80
2022-10-10T20:32:21.548Z,40.90
2022-10-10T20:34:55.587Z,40.80
2022-10-10T20:37:29.935Z,40.70
2022-10-10T20:40:04.055Z,40.80
2022-10-10T20:42:39.593Z,40.70
2022-10-10T20:45:13.631Z,40.60
2022-10-10T20:47:47.659Z,40.70
2022-10-10T20:50:21.610Z,40.60
2022-10-10T20:52:55.661Z,41.20
2022-10-10T20:55:29.731Z,40.80
2022-10-10T20:58:05.174Z,40.90
2022-10-10T21:00:42.569Z,40.80
2022-10-10T21:03:16.690Z,40.80
2022-10-10T21:05:50.814Z,40.90
2022-10-10T21:08:24.949Z,40.90
2022-10-10T21:11:01.745Z,41.00
2022-10-10T21:13:39.328Z,41.10
2022-10-10T21:16:16.158Z,41.10
2022-10-10T21:18:57.604Z,40.90
2022-10-10T21:21:34.848Z,40.70
2022-10-10T21:24:12.327Z,41.00
2022-10-10T21:26:49.167Z,41.10
2022-10-10T21:29:24.793Z,41.10
2022-10-10T21:31:59.146Z,41.10
2022-10-10T21:34:33.105Z,41.10
2022-10-10T21:37:07.132Z,41.40
2022-10-10T21:39:41.462Z,40.80
2022-10-10T21:42:15.473Z,40.90
2022-10-10T21:44:50.912Z,40.80
2022-10-10T21:47:24.932Z,40.90
2022-10-10T21:49:59.094Z,40.80
2022-10-10T21:52:32.996Z,40.80
2022-10-10T21:55:07.801Z,41.00
2022-10-10T21:57:41.701Z,41.00
2022-10-10T22:00:18.201Z,41.00
2022-10-10T22:02:52.424Z,41.00
2022-10-10T22:05:26.462Z,40.90
2022-10-10T22:08:00.399Z,40.80
2022-10-10T22:10:34.759Z,40.80
2022-10-10T22:13:08.691Z,40.80
2022-10-10T22:15:44.333Z,41.00
2022-10-10T22:18:18.367Z,41.10
2022-10-10T22:20:53.012Z,41.00
2022-10-10T22:23:26.913Z,40.80
2022-10-10T22:26:00.925Z,40.90
2022-10-10T22:28:35.030Z,41.00
2022-10-10T22:31:11.785Z,41.10
2022-10-10T22:33:45.913Z,41.00
2022-10-10T22:36:19.909Z,41.00
2022-10-10T22:38:53.900Z,41.00
2022-10-10T22:41:28.038Z,40.90
2022-10-10T22:44:03.299Z,41.00
2022-10-10T22:46:38.697Z,40.80
2022-10-10T22:49:13.360Z,40.80
2022-10-10T22:51:47.299Z,40.80
2022-10-10T22:54:21.359Z,40.90
2022-10-10T22:56:55.388Z,40.80
2022-10-10T22:59:29.725Z,40.80
2022-10-10T23:02:05.296Z,40.90
2022-10-10T23:04:39.223Z,41.00
2022-10-10T23:07:14.059Z,41.00
2022-10-10T23:09:48.181Z,40.80
2022-10-10T23:12:22.142Z,41.00
2022-10-10T23:14:56.080Z,40.90
2022-10-10T23:17:31.501Z,40.80
2022-10-10T23:20:06.179Z,40.80
2022-10-10T23:22:40.313Z,40.90
2022-10-10T23:25:14.665Z,40.90
2022-10-10T23:27:48.793Z,40.80
2022-10-10T23:30:22.977Z,40.90
2022-10-10T23:32:58.307Z,41.00
2022-10-10T23:35:32.255Z,41.00
2022-10-10T23:38:07.223Z,40.80
2022-10-10T23:40:41.169Z,40.80
2022-10-10T23:43:15.284Z,40.70
2022-10-10T23:45:49.609Z,40.80
2022-10-10T23:48:25.042Z,40.70
2022-10-10T23:50:59.295Z,40.80
2022-10-10T23:53:33.286Z,40.80
2022-10-10T23:56:08.069Z,40.80
2022-10-10T23:58:42.332Z,40.80
